Time;durP1;ratioP1;P1;durP2;ratioP2;P2;SDS_P1;SDS_P2;PMS_P1;PMS_P2;Temp;Humidity;BMP_temperature;BMP_pressure;BME280_temperature;BME280_humidity;BME280_pressure;Samples;Min_cycle;Max_cycle;Signal;HPM_P1;HPM_P2
2023/03/02 00:03:29;;;;;;;96.80;52.90;;;;;;;-0.56;87.26;101224.80;179252;1272;44050;-85
2023/03/02 00:07:33;;;;;;;92.20;53.40;;;;;;;-0.58;86.27;101229.72;179393;1272;43784;-85
2023/03/02 00:11:39;;;;;;;100.60;54.80;;;;;;;-0.60;85.63;101220.34;179508;1271;43753;-85
2023/03/02 00:15:42;;;;;;;89.50;48.50;;;;;;;-0.63;84.73;101219.70;179410;1272;44045;-85
2023/03/02 00:19:46;;;;;;;94.00;49.90;;;;;;;-0.71;85.63;101221.96;179117;1273;58385;-85
2023/03/02 00:23:50;;;;;;;80.20;49.30;;;;;;;-0.87;87.65;101224.01;179359;1272;47609;-85
2023/03/02 00:27:53;;;;;;;89.10;51.10;;;;;;;-0.98;87.08;101227.69;179514;1271;44027;-85
2023/03/02 00:31:57;;;;;;;79.20;46.10;;;;;;;-0.97;86.34;101231.67;179525;1271;43976;-85
2023/03/02 00:36:00;;;;;;;86.70;47.90;;;;;;;-0.97;85.93;101228.89;179521;1272;43844;-85
2023/03/02 00:40:08;;;;;;;78.50;51.60;;;;;;;-0.91;86.18;101231.56;179627;1272;58603;-85
2023/03/02 00:44:16;;;;;;;88.00;49.60;;;;;;;-0.84;86.01;101226.91;179535;1272;43741;-85
2023/03/02 00:48:19;;;;;;;114.10;63.80;;;;;;;-0.83;85.17;101220.45;179519;1272;43993;-85
2023/03/02 00:52:23;;;;;;;86.70;56.60;;;;;;;-0.85;85.27;101216.64;179580;1271;44501;-85
2023/03/02 00:56:26;;;;;;;93.40;53.90;;;;;;;-0.83;85.36;101213.30;179234;1272;43787;-85
2023/03/02 01:00:31;;;;;;;115.00;63.80;;;;;;;-0.87;85.66;101212.52;179496;1272;59444;-84
2023/03/02 01:04:41;;;;;;;116.60;67.30;;;;;;;-0.87;85.62;101210.42;179365;1272;44060;-85
2023/03/02 01:08:45;;;;;;;112.20;65.10;;;;;;;-0.89;85.20;101204.02;179435;1272;44038;-85
2023/03/02 01:12:48;;;;;;;104.50;64.70;;;;;;;-0.93;84.56;101204.61;179264;1272;44000;-85
2023/03/02 01:16:51;;;;;;;108.10;70.40;;;;;;;-0.94;84.68;101196.12;179419;1272;43973;-85
2023/03/02 01:21:04;;;;;;;115.00;70.80;;;;;;;-0.96;85.33;101188.65;180056;1272;58345;-84
2023/03/02 01:25:07;;;;;;;120.00;71.60;;;;;;;-0.90;85.86;101180.52;179487;1272;43865;-85
2023/03/02 01:29:10;;;;;;;110.90;67.20;;;;;;;-0.89;85.01;101175.63;179417;1271;44055;-84
2023/03/02 01:33:14;;;;;;;109.50;67.60;;;;;;;-0.97;84.35;101175.95;179280;1272;43918;-84
2023/03/02 01:37:19;;;;;;;120.10;68.70;;;;;;;-1.09;84.66;101173.23;179260;1271;43887;-85
2023/03/02 01:41:23;;;;;;;125.60;74.50;;;;;;;-1.22;85.21;101170.15;179450;1273;59685;-86
2023/03/02 01:45:47;;;;;;;117.00;68.80;;;;;;;-1.27;85.19;101159.11;179335;1271;44067;-85
2023/03/02 01:49:58;;;;;;;94.60;53.40;;;;;;;-1.40;85.89;101149.61;179496;1272;43835;-85
2023/03/02 01:54:15;;;;;;;106.20;67.70;;;;;;;-1.57;86.31;101146.23;179345;1272;43900;-85
2023/03/02 01:58:20;;;;;;;121.60;71.30;;;;;;;-1.52;87.00;101140.77;179296;1273;43734;-84
2023/03/02 02:02:25;;;;;;;125.70;72.80;;;;;;;-1.43;87.07;101140.95;179355;1272;58704;-85
2023/03/02 02:06:37;;;;;;;122.00;70.20;;;;;;;-1.35;87.38;101138.19;179305;1272;43848;-85
2023/03/02 02:10:41;;;;;;;126.10;74.40;;;;;;;-1.30;86.65;101138.09;179087;1272;44256;-85
2023/03/02 02:14:44;;;;;;;139.00;80.50;;;;;;;-1.23;86.42;101134.15;179494;1271;44284;-85
2023/03/02 02:18:48;;;;;;;129.60;73.50;;;;;;;-1.16;86.69;101131.77;179657;1271;43774;-85
2023/03/02 02:23:22;;;;;;;139.00;82.10;;;;;;;-1.12;86.31;101130.98;179411;1272;58327;-85
2023/03/02 02:27:32;;;;;;;140.30;73.30;;;;;;;-1.09;87.17;101130.92;179484;1271;44196;-85
2023/03/02 02:31:56;;;;;;;130.10;73.20;;;;;;;-1.09;85.75;101130.73;179319;1272;43782;-85
2023/03/02 02:36:06;;;;;;;118.90;69.10;;;;;;;-1.11;84.65;101127.65;179398;1273;44045;-85
2023/03/02 02:40:20;;;;;;;141.40;76.90;;;;;;;-1.24;84.18;101123.38;179378;1272;43844;-84
2023/03/02 02:44:23;;;;;;;136.60;81.00;;;;;;;-1.32;84.43;101122.14;179252;1272;56943;-85
2023/03/02 02:48:29;;;;;;;128.30;70.60;;;;;;;-1.42;85.10;101122.67;179306;1272;44060;-85
2023/03/02 02:52:33;;;;;;;114.00;64.20;;;;;;;-1.48;85.36;101124.52;179292;1272;44173;-85
2023/03/02 02:56:38;;;;;;;126.60;74.80;;;;;;;-1.47;85.16;101127.46;179407;1272;43928;-86
2023/03/02 03:00:42;;;;;;;126.00;73.60;;;;;;;-1.47;85.23;101121.71;179311;1272;44142;-86
2023/03/02 03:04:45;;;;;;;138.20;74.20;;;;;;;-1.51;84.89;101118.48;179309;1273;59444;-85
2023/03/02 03:08:54;;;;;;;98.00;60.40;;;;;;;-1.53;85.06;101116.09;179854;1272;43962;-84
2023/03/02 03:12:58;;;;;;;137.50;73.00;;;;;;;-1.59;85.17;101117.56;179478;1271;43968;-84
2023/03/02 03:17:01;;;;;;;130.50;70.30;;;;;;;-1.57;85.25;101114.24;179414;1273;43751;-85
2023/03/02 03:21:05;;;;;;;130.90;73.80;;;;;;;-1.52;86.00;101112.58;179427;1272;44133;-85
2023/03/02 03:25:08;;;;;;;128.70;68.90;;;;;;;-1.53;87.25;101109.64;179525;1271;59285;-85
2023/03/02 03:29:14;;;;;;;111.20;66.80;;;;;;;-1.56;88.58;101110.04;179361;1272;44116;-85
2023/03/02 03:33:17;;;;;;;119.80;70.80;;;;;;;-1.55;88.57;101107.94;179410;1272;43812;-85
2023/03/02 03:37:20;;;;;;;111.50;68.20;;;;;;;-1.51;87.16;101112.21;179350;1272;44034;-84
2023/03/02 03:41:24;;;;;;;115.80;67.30;;;;;;;-1.50;86.23;101105.06;179427;1272;43758;-85
2023/03/02 03:45:28;;;;;;;141.90;73.00;;;;;;;-1.55;85.43;101102.19;179337;1272;57952;-85
2023/03/02 03:49:32;;;;;;;123.70;68.20;;;;;;;-1.60;85.14;101104.88;179328;1272;52545;-85
2023/03/02 03:53:36;;;;;;;123.00;67.50;;;;;;;-1.61;85.36;101104.58;179291;1271;43893;-85
2023/03/02 03:57:40;;;;;;;124.40;69.90;;;;;;;-1.61;85.11;101107.00;179235;1272;44116;-85
2023/03/02 04:01:55;;;;;;;115.50;69.10;;;;;;;-1.62;85.57;101108.40;179420;1273;43832;-85
2023/03/02 04:05:58;;;;;;;132.90;74.70;;;;;;;-1.57;85.73;101104.33;179370;1272;57922;-84
2023/03/02 04:10:02;;;;;;;116.00;64.30;;;;;;;-1.57;86.07;101095.98;179515;1273;44254;-85
2023/03/02 04:14:06;;;;;;;115.50;68.00;;;;;;;-1.54;86.58;101101.33;179344;1273;43832;-86
2023/03/02 04:18:10;;;;;;;129.00;74.40;;;;;;;-1.50;87.76;101098.10;179225;1272;44130;-85
2023/03/02 04:22:15;;;;;;;126.80;65.80;;;;;;;-1.45;88.72;101101.32;179252;1272;43988;-84
2023/03/02 04:26:18;;;;;;;110.80;62.00;;;;;;;-1.42;88.68;101100.92;179076;1273;59567;-85
2023/03/02 04:30:24;;;;;;;120.80;70.00;;;;;;;-1.38;88.22;101096.84;179194;1273;48176;-84
2023/03/02 04:34:28;;;;;;;128.40;69.50;;;;;;;-1.35;88.30;101092.78;179378;1272;44128;-84
2023/03/02 04:38:31;;;;;;;122.90;68.00;;;;;;;-1.30;88.32;101090.59;179222;1273;44076;-84
2023/03/02 04:42:35;;;;;;;107.10;65.90;;;;;;;-1.29;87.97;101086.39;179334;1272;44050;-84
2023/03/02 04:46:39;;;;;;;122.60;69.20;;;;;;;-1.29;88.04;101086.75;179412;1272;58894;-85
2023/03/02 04:50:42;;;;;;;124.20;72.80;;;;;;;-1.32;86.91;101085.25;179355;1272;43871;-85
2023/03/02 04:54:46;;;;;;;123.00;70.60;;;;;;;-1.28;85.97;101086.72;179466;1272;43865;-85
2023/03/02 04:58:49;;;;;;;125.10;73.30;;;;;;;-1.25;85.46;101085.80;178944;1273;242414;-87
2023/03/02 05:02:53;;;;;;;118.20;68.30;;;;;;;-1.28;84.72;101082.03;179419;1271;43803;-85
2023/03/02 05:06:57;;;;;;;158.40;83.80;;;;;;;-1.34;84.39;101079.37;179182;1272;58107;-85
2023/03/02 05:11:01;;;;;;;270.50;138.90;;;;;;;-1.51;84.42;101078.10;179330;1273;43881;-85
2023/03/02 05:15:04;;;;;;;255.50;135.20;;;;;;;-1.59;84.83;101081.04;179645;1271;44192;-84
2023/03/02 05:19:10;;;;;;;202.40;104.80;;;;;;;-1.62;84.58;101076.21;179422;1272;43992;-84
2023/03/02 05:23:22;;;;;;;142.90;81.70;;;;;;;-1.66;84.59;101087.95;179129;1272;43753;-84
2023/03/02 05:27:27;;;;;;;191.30;105.50;;;;;;;-1.80;86.01;101085.08;179377;1273;57927;-85
2023/03/02 05:31:37;;;;;;;182.90;94.20;;;;;;;-1.84;86.20;101082.37;179383;1272;43756;-85
2023/03/02 05:35:40;;;;;;;168.30;92.20;;;;;;;-1.78;87.00;101079.99;179256;1272;43792;-85
2023/03/02 05:39:43;;;;;;;143.70;87.60;;;;;;;-1.72;87.25;101081.45;179238;1273;44056;-85
2023/03/02 05:43:46;;;;;;;142.50;80.00;;;;;;;-1.67;87.84;101086.59;179448;1272;43904;-84
2023/03/02 05:47:50;;;;;;;142.70;79.30;;;;;;;-1.57;87.84;101078.92;179193;1272;60317;-84
2023/03/02 05:51:53;;;;;;;142.20;78.10;;;;;;;-1.67;86.45;101077.86;179204;1272;43963;-84
2023/03/02 05:55:56;;;;;;;137.50;71.50;;;;;;;-1.85;86.72;101084.29;179308;1272;44295;-84
2023/03/02 05:59:59;;;;;;;128.70;79.50;;;;;;;-1.94;87.05;101083.06;179434;1273;44080;-84
2023/03/02 06:04:03;;;;;;;154.70;90.90;;;;;;;-1.85;87.65;101083.59;179358;1273;43775;-85
2023/03/02 06:08:07;;;;;;;115.20;68.60;;;;;;;-1.70;87.93;101087.67;179208;1272;59476;-84
2023/03/02 06:12:10;;;;;;;113.70;73.90;;;;;;;-1.69;86.81;101094.79;179204;1273;43739;-84
2023/03/02 06:16:13;;;;;;;137.60;76.10;;;;;;;-1.67;87.25;101096.67;179234;1272;44107;-84
2023/03/02 06:20:17;;;;;;;114.60;70.60;;;;;;;-1.59;88.00;101106.44;179417;1272;44057;-84
2023/03/02 06:24:20;;;;;;;125.80;80.80;;;;;;;-1.50;88.88;101104.02;179392;1273;43742;-84
2023/03/02 06:28:24;;;;;;;121.40;71.90;;;;;;;-1.38;89.67;101103.98;179335;1273;58247;-84
2023/03/02 06:32:32;;;;;;;133.10;79.00;;;;;;;-1.28;90.74;101102.73;179435;1272;44093;-84
2023/03/02 06:36:37;;;;;;;135.00;78.20;;;;;;;-1.22;92.77;101106.45;179408;1273;44152;-85
2023/03/02 06:40:40;;;;;;;138.00;81.30;;;;;;;-0.99;92.64;101111.75;179277;1271;43892;-84
2023/03/02 06:44:44;;;;;;;113.20;66.30;;;;;;;-0.70;93.31;101111.48;179413;1271;44145;-85
2023/03/02 06:48:47;;;;;;;142.40;82.40;;;;;;;-0.34;93.10;101112.95;179151;1273;60523;-85
2023/03/02 06:52:50;;;;;;;138.70;88.50;;;;;;;-0.06;91.86;101114.92;179486;1271;43838;-85
2023/03/02 06:56:55;;;;;;;137.80;81.20;;;;;;;0.22;92.84;101112.86;179540;1271;44003;-85
2023/03/02 07:00:58;;;;;;;135.00;77.40;;;;;;;0.61;93.77;101116.55;179421;1273;44058;-83
2023/03/02 07:05:02;;;;;;;142.90;85.40;;;;;;;1.05;93.06;101115.86;179412;1272;43759;-86
2023/03/02 07:09:05;;;;;;;149.50;88.00;;;;;;;1.50;91.43;101112.27;179287;1275;58659;-85
2023/03/02 07:13:08;;;;;;;149.40;96.00;;;;;;;1.75;88.11;101114.63;179339;1272;43814;-85
2023/03/02 07:17:12;;;;;;;141.40;82.40;;;;;;;1.95;85.73;101111.40;179262;1273;44135;-86
2023/03/02 07:21:15;;;;;;;146.70;82.50;;;;;;;1.67;85.77;101108.95;179239;1273;44100;-84
2023/03/02 07:25:18;;;;;;;155.30;97.50;;;;;;;1.42;87.45;101106.23;179392;1273;44359;-85
2023/03/02 07:29:21;;;;;;;194.80;111.60;;;;;;;1.27;90.08;101108.23;179380;1274;59576;-85
2023/03/02 07:33:24;;;;;;;195.30;126.20;;;;;;;1.42;89.16;101107.61;179350;1272;44038;-85
2023/03/02 07:37:27;;;;;;;158.30;93.30;;;;;;;1.66;89.44;101106.89;179338;1272;43814;-85
2023/03/02 07:41:31;;;;;;;154.30;98.00;;;;;;;1.81;88.62;101107.30;179460;1272;43876;-86
2023/03/02 07:45:35;;;;;;;152.10;92.70;;;;;;;1.89;88.05;101103.18;179260;1273;43983;-85
2023/03/02 07:49:38;;;;;;;160.20;100.80;;;;;;;1.92;88.52;101105.02;179386;1273;59701;-85
2023/03/02 07:53:42;;;;;;;140.20;84.70;;;;;;;2.21;89.25;101094.78;179453;1272;43802;-86
2023/03/02 07:57:45;;;;;;;143.00;95.10;;;;;;;2.54;88.85;101090.52;179246;1273;43830;-85
2023/03/02 08:01:48;;;;;;;169.80;95.10;;;;;;;2.95;86.59;101091.16;179403;1273;43832;-85
2023/03/02 08:05:52;;;;;;;141.40;86.10;;;;;;;3.28;84.11;101088.68;179572;1272;43856;-86
2023/03/02 08:09:56;;;;;;;156.30;93.90;;;;;;;3.47;83.32;101090.42;179505;1273;59396;-85
2023/03/02 08:14:01;;;;;;;142.60;91.70;;;;;;;3.63;81.87;101091.90;179264;1273;43881;-85
2023/03/02 08:18:04;;;;;;;142.70;92.50;;;;;;;3.69;80.87;101091.48;179410;1271;44245;-86
2023/03/02 08:22:07;;;;;;;153.50;94.40;;;;;;;3.86;81.27;101092.02;179320;1272;47454;-86
2023/03/02 08:26:11;;;;;;;148.70;96.60;;;;;;;4.14;80.15;101092.14;179238;1274;43826;-85
2023/03/02 08:30:18;;;;;;;141.60;93.30;;;;;;;4.39;79.28;101096.71;179238;1272;57928;-86
2023/03/02 08:34:22;;;;;;;165.90;98.90;;;;;;;4.47;78.79;101096.70;179357;1272;43751;-86
2023/03/02 08:38:26;;;;;;;163.40;97.90;;;;;;;4.64;77.98;101090.00;179352;1272;44011;-86
2023/03/02 08:42:29;;;;;;;143.10;92.50;;;;;;;4.81;77.86;101091.55;179335;1272;43997;-85
2023/03/02 08:46:32;;;;;;;156.30;91.30;;;;;;;4.96;77.58;101092.44;179396;1272;43950;-85
2023/03/02 08:50:36;;;;;;;159.30;95.40;;;;;;;5.16;75.71;101092.58;179303;1272;58352;-86
2023/03/02 08:54:39;;;;;;;138.40;86.50;;;;;;;5.34;75.48;101096.90;179427;1272;44126;-85
2023/03/02 08:58:42;;;;;;;136.00;85.70;;;;;;;5.47;73.40;101095.02;179365;1273;44116;-86
2023/03/02 09:02:46;;;;;;;122.10;81.80;;;;;;;5.53;71.97;101089.66;179286;1273;43951;-85
2023/03/02 09:06:50;;;;;;;130.10;80.20;;;;;;;5.53;71.22;101089.84;179171;1273;44073;-85
2023/03/02 09:10:54;;;;;;;146.20;91.50;;;;;;;5.59;72.70;101090.60;179459;1273;57606;-85
2023/03/02 09:14:57;;;;;;;118.00;76.50;;;;;;;5.56;72.29;101085.64;179400;1273;43831;-85
2023/03/02 09:19:00;;;;;;;109.50;72.80;;;;;;;5.49;72.38;101086.31;179492;1272;44286;-85
2023/03/02 09:23:04;;;;;;;127.80;83.40;;;;;;;5.34;73.35;101077.68;179315;1272;43970;-85
2023/03/02 09:27:07;;;;;;;117.30;76.90;;;;;;;5.48;73.61;101077.56;179284;1272;43786;-86
2023/03/02 09:31:11;;;;;;;119.90;79.70;;;;;;;5.69;73.73;101077.83;179298;1273;57991;-84
2023/03/02 09:35:14;;;;;;;129.80;83.30;;;;;;;5.77;71.95;101074.75;179733;1273;43838;-85
2023/03/02 09:39:18;;;;;;;140.50;86.90;;;;;;;5.79;73.22;101073.27;179444;1273;43865;-85
2023/03/02 09:43:39;;;;;;;143.30;85.70;;;;;;;5.88;73.09;101074.40;179469;1273;43873;-85
2023/03/02 09:48:01;;;;;;;127.50;79.90;;;;;;;6.03;72.73;101063.14;179509;1272;43821;-85
2023/03/02 09:52:23;;;;;;;112.00;73.70;;;;;;;6.13;70.98;101060.88;179444;1273;59803;-86
2023/03/02 09:56:26;;;;;;;124.80;80.40;;;;;;;6.21;71.21;101059.77;179520;1271;43809;-86
2023/03/02 10:00:36;;;;;;;124.60;75.70;;;;;;;6.35;71.66;101057.33;179256;1273;44184;-85
2023/03/02 10:04:43;;;;;;;96.30;60.00;;;;;;;6.49;69.40;101049.40;179405;1272;44067;-85
2023/03/02 10:08:49;;;;;;;95.10;59.70;;;;;;;6.59;67.60;101043.56;179484;1273;43800;-85
2023/03/02 10:13:29;;;;;;;81.50;56.70;;;;;;;6.67;67.43;101042.61;179399;1273;58354;-86
2023/03/02 10:17:51;;;;;;;73.90;43.20;;;;;;;6.78;66.80;101038.48;179489;1272;43823;-86
2023/03/02 10:22:37;;;;;;;74.30;47.90;;;;;;;6.68;64.40;101033.95;179354;1272;44303;-86
2023/03/02 10:26:56;;;;;;;64.70;39.20;;;;;;;6.83;63.22;101027.15;179512;1272;44141;-86
2023/03/02 10:31:15;;;;;;;48.20;33.20;;;;;;;6.99;61.81;101032.46;179695;1273;43821;-86
2023/03/02 10:35:24;;;;;;;51.50;30.40;;;;;;;6.99;60.01;101028.23;179678;1272;58362;-85
2023/03/02 10:39:27;;;;;;;50.90;33.60;;;;;;;7.03;58.75;101027.47;179503;1272;43899;-86
2023/03/02 10:43:47;;;;;;;55.50;35.90;;;;;;;7.15;59.15;101026.45;179537;1272;43885;-86
2023/03/02 10:48:06;;;;;;;46.90;30.80;;;;;;;7.28;57.41;101025.55;179332;1271;43890;-86
2023/03/02 10:52:15;;;;;;;62.80;38.50;;;;;;;7.31;57.93;101014.25;179412;1272;44089;-85
2023/03/02 10:56:20;;;;;;;58.50;37.70;;;;;;;7.42;58.03;101007.50;179473;1272;59197;-85
2023/03/02 11:00:25;;;;;;;59.10;40.30;;;;;;;7.44;59.06;101004.55;179333;1272;44335;-85
2023/03/02 11:04:30;;;;;;;52.10;37.10;;;;;;;7.41;58.39;101000.46;179527;1272;43863;-85
2023/03/02 11:08:33;;;;;;;59.00;37.80;;;;;;;7.49;57.57;100997.56;179262;1272;44481;-85
2023/03/02 11:12:37;;;;;;;59.60;35.50;;;;;;;7.52;57.43;100994.23;179239;1272;43793;-86
2023/03/02 11:16:40;;;;;;;50.70;37.70;;;;;;;7.52;58.25;100982.23;179456;1272;58486;-85
2023/03/02 11:20:49;;;;;;;58.00;36.90;;;;;;;7.57;58.10;100981.05;179538;1271;43967;-85
2023/03/02 11:24:56;;;;;;;51.20;35.80;;;;;;;7.49;57.54;100974.30;179371;1272;44131;-85
2023/03/02 11:29:09;;;;;;;50.50;32.90;;;;;;;7.48;58.79;100964.79;179641;1272;43868;-85
2023/03/02 11:33:20;;;;;;;61.70;38.80;;;;;;;7.62;58.20;100964.16;179615;1271;43852;-85
2023/03/02 11:37:47;;;;;;;56.70;34.40;;;;;;;7.75;57.50;100962.71;179358;1273;57117;-85
2023/03/02 11:41:52;;;;;;;56.30;31.60;;;;;;;7.65;57.18;100958.71;179415;1272;44270;-86
2023/03/02 11:46:04;;;;;;;60.90;38.70;;;;;;;7.66;57.18;100957.59;179574;1272;44204;-85
2023/03/02 11:50:19;;;;;;;53.50;32.20;;;;;;;7.79;55.99;100947.61;179480;1272;43774;-86
2023/03/02 11:54:35;;;;;;;42.00;32.40;;;;;;;7.95;56.53;100939.48;179499;1272;44159;-85
2023/03/02 11:58:41;;;;;;;51.90;36.20;;;;;;;8.05;56.08;100928.60;179506;1272;58416;-85
2023/03/02 12:02:44;;;;;;;61.60;35.10;;;;;;;8.05;56.21;100924.17;179282;1272;43840;-85
2023/03/02 12:06:47;;;;;;;52.30;31.80;;;;;;;8.05;57.22;100919.24;179311;1272;44142;-85
2023/03/02 12:10:59;;;;;;;45.40;30.10;;;;;;;8.02;57.15;100912.52;179466;1272;44072;-85
2023/03/02 12:15:23;;;;;;;46.30;35.40;;;;;;;8.09;56.38;100911.19;179304;1272;44139;-86
2023/03/02 12:19:37;;;;;;;43.00;31.90;;;;;;;8.15;56.80;100908.38;179470;1271;59484;-86
2023/03/02 12:23:54;;;;;;;45.90;32.20;;;;;;;8.20;56.52;100908.83;179434;1272;43868;-86
2023/03/02 12:27:57;;;;;;;52.80;32.90;;;;;;;8.26;56.59;100905.61;179384;1271;44106;-85
2023/03/02 12:32:21;;;;;;;45.60;28.10;;;;;;;8.36;56.83;100904.98;179605;1272;43893;-85
2023/03/02 12:36:41;;;;;;;43.50;31.00;;;;;;;8.50;57.25;100899.91;179379;1272;44156;-85
2023/03/02 12:41:22;;;;;;;42.30;30.80;;;;;;;8.53;55.93;100895.83;179417;1272;59980;-85
2023/03/02 12:45:47;;;;;;;43.50;31.70;;;;;;;8.61;56.78;100888.25;179410;1272;44080;-86
2023/03/02 12:49:55;;;;;;;50.90;32.50;;;;;;;8.57;56.42;100884.05;179554;1272;44228;-86
2023/03/02 12:54:05;;;;;;;51.30;32.50;;;;;;;8.53;56.26;100873.91;179164;1272;43817;-85
2023/03/02 12:58:24;;;;;;;44.50;31.00;;;;;;;8.65;56.35;100865.55;179385;1271;44368;-85
2023/03/02 13:02:30;;;;;;;45.20;30.70;;;;;;;8.77;55.93;100864.75;179299;1273;58380;-86
2023/03/02 13:06:38;;;;;;;45.80;31.80;;;;;;;8.88;55.61;100864.22;179319;1273;43818;-85
2023/03/02 13:10:48;;;;;;;44.80;28.70;;;;;;;8.97;55.44;100860.10;179520;1272;45701;-84
2023/03/02 13:14:55;;;;;;;47.90;31.00;;;;;;;9.00;55.15;100856.05;179306;1271;43951;-86
2023/03/02 13:19:01;;;;;;;50.70;30.60;;;;;;;8.98;54.73;100853.27;179529;1272;44093;-85
2023/03/02 13:23:04;;;;;;;;;;;;;;;8.92;54.25;100844.16;179364;1272;59828;-85
2023/03/02 13:27:16;;;;;;;45.60;28.60;;;;;;;8.95;55.14;100838.84;179371;1272;43885;-86
2023/03/02 13:31:22;;;;;;;39.30;29.10;;;;;;;9.01;55.20;100832.59;179167;1272;43760;-85
2023/03/02 13:35:28;;;;;;;41.20;30.80;;;;;;;9.06;55.62;100827.33;179603;1272;43965;-85
2023/03/02 13:39:31;;;;;;;45.30;30.50;;;;;;;9.13;55.17;100818.56;179184;1272;43909;-85
2023/03/02 13:43:37;;;;;;;44.90;31.80;;;;;;;9.24;55.51;100807.70;179508;1272;58049;-86
2023/03/02 13:47:42;;;;;;;45.50;30.00;;;;;;;9.34;54.66;100803.54;179428;1272;43805;-86
2023/03/02 13:51:46;;;;;;;60.00;33.90;;;;;;;9.40;55.51;100800.82;179565;1272;44171;-87
2023/03/02 13:55:52;;;;;;;46.30;29.90;;;;;;;9.51;54.46;100792.95;179774;1272;43858;-86
2023/03/02 13:59:57;;;;;;;48.60;32.40;;;;;;;9.59;54.39;100792.63;179459;1271;45708;-86
2023/03/02 14:04:01;;;;;;;46.40;30.10;;;;;;;9.60;54.03;100788.30;179671;1272;60609;-87
2023/03/02 14:08:06;;;;;;;47.40;33.00;;;;;;;9.64;53.44;100778.61;179673;1270;49725;-87
2023/03/02 14:12:20;;;;;;;45.10;29.20;;;;;;;9.68;53.39;100770.22;179537;1272;43770;-88
2023/03/02 14:16:24;;;;;;;52.10;28.70;;;;;;;9.73;53.72;100767.02;179223;1271;44101;-88
2023/03/02 14:20:27;;;;;;;57.40;31.00;;;;;;;9.77;53.06;100761.77;179121;1272;43871;-88
2023/03/02 14:24:31;;;;;;;43.50;28.40;;;;;;;9.75;52.42;100754.11;179442;1272;61033;-89
2023/03/02 14:28:34;;;;;;;141.30;86.20;;;;;;;9.74;52.94;100749.25;179531;1270;43967;-88
2023/03/02 14:32:38;;;;;;;44.50;28.70;;;;;;;9.72;52.47;100744.94;179787;1270;43917;-89
2023/03/02 14:36:43;;;;;;;47.30;32.10;;;;;;;9.75;52.65;100740.66;179406;1270;44065;-88
2023/03/02 14:40:46;;;;;;;47.60;28.50;;;;;;;9.76;52.69;100738.31;180348;1271;43506;-87
2023/03/02 14:44:51;;;;;;;49.60;32.50;;;;;;;9.76;53.36;100731.42;179828;1270;58744;-89
2023/03/02 14:48:54;;;;;;;48.60;32.90;;;;;;;9.73;53.70;100726.45;179478;1270;43819;-88
2023/03/02 14:52:58;;;;;;;44.60;31.80;;;;;;;9.72;53.07;100725.09;179417;1272;44401;-89
2023/03/02 14:57:05;;;;;;;44.00;28.10;;;;;;;9.78;53.33;100721.65;179438;1271;43825;-89
2023/03/02 15:01:12;;;;;;;42.80;30.30;;;;;;;9.77;53.36;100718.52;179577;1272;44262;-87
2023/03/02 15:05:16;;;;;;;45.10;29.80;;;;;;;9.81;53.38;100719.16;179329;1271;58441;-87
2023/03/02 15:09:19;;;;;;;34.20;26.10;;;;;;;9.84;53.12;100712.92;179564;1270;44357;-86
2023/03/02 15:13:23;;;;;;;43.60;29.90;;;;;;;9.79;53.82;100710.59;179316;1272;44084;-86
2023/03/02 15:17:26;;;;;;;46.40;32.50;;;;;;;9.77;53.35;100707.23;179557;1272;46239;-86
2023/03/02 15:21:30;;;;;;;49.20;29.60;;;;;;;9.77;53.14;100704.74;179315;1272;44170;-85
2023/03/02 15:25:33;;;;;;;46.00;32.30;;;;;;;9.77;54.03;100701.52;179366;1272;59280;-85
2023/03/02 15:29:36;;;;;;;51.30;31.50;;;;;;;9.76;54.41;100704.64;179497;1272;43873;-86
2023/03/02 15:33:40;;;;;;;47.50;29.90;;;;;;;9.71;54.28;100703.90;179312;1272;45813;-85
2023/03/02 15:37:43;;;;;;;44.90;31.70;;;;;;;9.68;54.12;100705.38;179284;1272;44473;-86
2023/03/02 15:41:46;;;;;;;113.40;68.90;;;;;;;9.62;54.47;100701.17;179204;1272;43894;-86
2023/03/02 15:45:50;;;;;;;112.70;66.50;;;;;;;9.53;55.15;100698.60;179271;1272;58672;-86
2023/03/02 15:49:53;;;;;;;84.70;50.50;;;;;;;9.45;55.15;100698.51;179216;1272;52978;-86
2023/03/02 15:53:57;;;;;;;66.20;42.20;;;;;;;9.30;56.01;100697.77;179354;1272;44123;-86
2023/03/02 15:58:00;;;;;;;49.30;33.10;;;;;;;9.14;56.79;100702.58;179530;1272;43795;-87
2023/03/02 16:02:03;;;;;;;65.30;44.20;;;;;;;8.91;65.44;100705.73;179460;1271;43816;-86
2023/03/02 16:06:07;;;;;;;76.00;49.50;;;;;;;8.65;69.00;100706.06;179414;1272;57805;-86
2023/03/02 16:10:14;;;;;;;80.90;52.40;;;;;;;8.21;70.65;100712.44;179352;1272;43939;-86
2023/03/02 16:14:17;;;;;;;90.70;60.00;;;;;;;7.83;71.80;100715.35;179425;1271;44157;-86
2023/03/02 16:18:20;;;;;;;79.00;54.90;;;;;;;7.45;73.64;100722.34;179582;1271;43910;-86
2023/03/02 16:22:23;;;;;;;77.70;49.90;;;;;;;7.06;75.06;100725.35;179428;1272;43128;-86
2023/03/02 16:26:26;;;;;;;81.90;53.00;;;;;;;6.74;77.07;100726.88;179627;1272;58024;-86
2023/03/02 16:30:30;;;;;;;81.00;49.20;;;;;;;6.48;78.81;100733.47;179411;1272;43843;-86
2023/03/02 16:34:33;;;;;;;85.80;51.70;;;;;;;6.19;80.67;100735.67;179259;1272;43786;-86
2023/03/02 16:38:37;;;;;;;75.20;46.50;;;;;;;5.94;82.39;100743.52;179493;1272;44157;-86
2023/03/02 16:42:40;;;;;;;67.20;48.50;;;;;;;5.71;83.93;100748.98;179689;1271;43753;-86
2023/03/02 16:46:43;;;;;;;81.10;51.10;;;;;;;5.50;84.89;100744.60;179429;1271;59684;-86
2023/03/02 16:50:55;;;;;;;73.90;48.20;;;;;;;5.32;85.78;100754.90;179474;1272;43878;-86
2023/03/02 16:54:58;;;;;;;68.80;42.50;;;;;;;5.15;86.50;100752.60;179335;1272;43851;-86
2023/03/02 16:59:01;;;;;;;80.40;47.80;;;;;;;4.96;87.57;100755.30;179387;1272;199131;-85
2023/03/02 17:03:05;;;;;;;80.40;45.10;;;;;;;4.78;88.22;100753.72;179501;1272;43790;-86
2023/03/02 17:07:08;;;;;;;71.50;46.90;;;;;;;4.60;89.16;100764.66;179591;1272;59333;-86
2023/03/02 17:11:11;;;;;;;80.80;49.40;;;;;;;4.40;90.31;100771.92;179262;1272;43883;-85
2023/03/02 17:15:15;;;;;;;74.30;46.70;;;;;;;4.23;91.01;100778.33;179486;1272;43799;-85
2023/03/02 17:19:18;;;;;;;83.40;53.70;;;;;;;4.11;91.90;100784.49;180066;1272;43801;-86
2023/03/02 17:23:22;;;;;;;79.80;49.50;;;;;;;3.99;92.37;100789.45;179433;1272;43965;-84
2023/03/02 17:27:26;;;;;;;81.70;49.80;;;;;;;3.86;93.06;100788.48;179325;1272;58404;-84
2023/03/02 17:31:29;;;;;;;108.80;61.30;;;;;;;3.79;93.11;100789.14;179286;1272;44043;-84
2023/03/02 17:35:32;;;;;;;119.00;67.50;;;;;;;3.67;93.67;100792.84;179472;1272;43851;-86
2023/03/02 17:39:35;;;;;;;84.10;52.70;;;;;;;3.55;94.44;100796.00;179332;1272;43715;-85
2023/03/02 17:43:40;;;;;;;87.60;48.80;;;;;;;3.34;95.73;100806.04;179403;1271;43909;-85
2023/03/02 17:47:43;;;;;;;83.70;47.00;;;;;;;3.20;96.43;100812.92;179233;1272;59038;-86
2023/03/02 17:51:47;;;;;;;75.50;41.30;;;;;;;3.08;97.46;100815.90;179303;1270;44258;-85
2023/03/02 17:55:51;;;;;;;72.00;42.20;;;;;;;2.97;98.86;100816.31;179235;1271;43953;-85
2023/03/02 17:59:56;;;;;;;76.00;42.00;;;;;;;2.98;99.82;100814.73;179339;1273;44074;-88
2023/03/02 18:04:00;;;;;;;75.80;42.90;;;;;;;2.97;100.00;100810.73;179235;1271;44074;-84
2023/03/02 18:08:03;;;;;;;78.00;47.30;;;;;;;2.92;100.00;100812.33;179383;1272;58559;-84
2023/03/02 18:12:07;;;;;;;74.60;42.20;;;;;;;2.89;100.00;100811.92;179115;1272;43929;-85
2023/03/02 18:16:11;;;;;;;70.40;44.30;;;;;;;2.91;100.00;100816.76;179192;1272;50198;-87
2023/03/02 18:20:15;;;;;;;78.10;43.50;;;;;;;2.87;100.00;100824.30;179335;1272;43838;-86
2023/03/02 18:24:18;;;;;;;69.30;43.60;;;;;;;2.88;100.00;100831.25;179469;1272;43875;-86
2023/03/02 18:28:22;;;;;;;75.90;43.60;;;;;;;2.89;100.00;100832.94;179328;1272;58181;-85